Upstream stations:
SHEF ID: MKGO2 Arkansas River near Muskogee, OK
STATION TYPE:
Regulating: Stage = 28.00, Flow = 125590
STAGE STAGE(2) RIV-FLOW FLOW-INDX WTR-TEMP BAT-LOAD
ft ft cfs ft/s F volt
Ccp-Rev Ccp-Rev Ccp-Rev Ccp-Rev Ccp-Rev Ccp-Rev
(US/Central)
01/18 00:00 18.25 18.18 -166 -0.01 41.63 12.67
01/18 01:00 18.37 18.28 -2172 -0.13 41.40 12.66
01/18 02:00 18.47 18.40 1443 0.10 41.34 12.64
01/18 03:00 18.44 18.37 3889 0.27 41.31 12.63
01/18 04:00 18.40 18.35 3305 0.23 41.54 12.61
01/18 05:00 18.31 18.29 3289 0.23 41.86 12.60
01/18 06:00 18.41 18.38 4601 0.32 41.94 12.59
01/18 07:00 18.67 18.65 8170 0.56 42.03 12.59
01/18 08:00 18.55 18.53 21114 1.46 41.67 12.57
01/18 09:00 18.42 18.37 22100 1.54 41.47 12.61
01/18 10:00 18.55 18.40 13332 0.92 42.66 13.52
01/18 11:00 18.41 18.45 7908 0.55 42.67 13.12
01/18 12:00 18.52 18.52 1736 0.12 42.35 13.03
01/18 13:00 18.67 18.57 2334 0.16 42.62 12.99
01/18 14:00 18.61 18.59 -508 -0.03 42.73 12.90
01/18 15:00 18.73 18.65 -341 -0.02 42.76 12.90
01/18 16:00 18.78 18.69 440 0.03 42.78 12.91
01/18 17:00 18.68 18.65 2774 0.19 42.94 12.85
01/18 18:00 18.70 18.66 7015 0.48 42.89 12.76
01/18 19:00 18.77 18.70 14231 0.97 42.85 12.70
01/18 20:00 18.73 18.70 18571 1.27 42.42 12.68
01/18 21:00 18.65 18.61 14427 0.99 42.76 12.67
01/18 22:00 18.55 18.51 5942 0.41 42.94 12.65
01/18 23:00 18.64 18.58 -2884 -0.17 42.84 12.63